Time;durP1;ratioP1;P1;durP2;ratioP2;P2;SDS_P1;SDS_P2;PMS_P1;PMS_P2;Temp;Humidity;BMP_temperature;BMP_pressure;BME280_temperature;BME280_humidity;BME280_pressure;Samples;Min_cycle;Max_cycle;Signal;HPM_P1;HPM_P2
2022/03/31 00:01:07;;;;;;;;;;;;;;;17.64;64.70;99795.19;4969183;28;1919;-33
2022/03/31 00:03:34;;;;;;;;;;;;;;;17.66;64.68;99797.72;4960229;28;1401;-33
2022/03/31 00:06:00;;;;;;;;;;;;;;;17.66;64.65;99803.06;4968708;28;1408;-34
2022/03/31 00:08:26;;;;;;;;;;;;;;;17.64;64.37;99797.03;4963308;28;1312;-33
2022/03/31 00:10:54;;;;;;;;;;;;;;;17.63;64.51;99792.69;4958637;28;1618;-33
2022/03/31 00:13:22;;;;;;;;;;;;;;;17.60;64.51;99783.09;4964974;28;1766;-34
2022/03/31 00:15:48;;;;;;;;;;;;;;;17.63;64.38;99776.63;4953732;28;1468;-33
2022/03/31 00:18:17;;;;;;;;;;;;;;;17.62;64.55;99780.28;4960183;28;1974;-34
2022/03/31 00:20:44;;;;;;;;;;;;;;;17.60;64.67;99792.97;4960177;28;1088;-33
2022/03/31 00:23:10;;;;;;;;;;;;;;;17.60;64.60;99776.94;4962435;28;1682;-33
2022/03/31 00:25:37;;;;;;;;;;;;;;;17.61;64.66;99781.28;4964895;28;1896;-33
2022/03/31 00:28:04;;;;;;;;;;;;;;;17.60;64.38;99779.59;4964533;28;1536;-33
2022/03/31 00:30:30;;;;;;;;;;;;;;;17.62;64.21;99780.28;4960725;28;1944;-33
2022/03/31 00:32:57;;;;;;;;;;;;;;;17.62;64.31;99782.97;4966354;28;1890;-32
2022/03/31 00:35:25;;;;;;;;;;;;;;;17.58;64.43;99787.75;4962278;28;1895;-33
2022/03/31 00:37:51;;;;;;;;;;;;;;;17.59;64.06;99788.63;4962954;28;1895;-33
2022/03/31 00:40:19;;;;;;;;;;;;;;;17.60;64.69;99771.56;4964238;28;1478;-33
2022/03/31 00:42:47;;;;;;;;;;;;;;;17.58;64.31;99768.22;4963837;28;1663;-33
2022/03/31 00:45:14;;;;;;;;;;;;;;;17.60;64.64;99777.75;4960999;28;1292;-33
2022/03/31 00:47:41;;;;;;;;;;;;;;;17.57;64.34;99766.53;4969650;28;1814;-33
2022/03/31 00:50:08;;;;;;;;;;;;;;;17.56;64.46;99775.53;4960532;28;1655;-33
2022/03/31 00:52:36;;;;;;;;;;;;;;;17.56;64.19;99765.69;4966310;28;1683;-33
2022/03/31 00:55:03;;;;;;;;;;;;;;;17.56;64.16;99765.69;4964245;28;1504;-33
2022/03/31 00:57:30;;;;;;;;;;;;;;;17.56;64.25;99764.84;4964025;28;1914;-33
2022/03/31 00:59:57;;;;;;;;;;;;;;;17.53;64.39;99744.63;4974274;28;1564;-33
2022/03/31 01:02:24;;;;;;;;;;;;;;;17.59;64.66;99759.22;4968159;28;2129;-33
2022/03/31 01:04:51;;;;;;;;;;;;;;;17.80;64.50;99735.69;4963877;28;1810;-33
2022/03/31 01:07:17;;;;;;;;;;;;;;;17.91;64.30;99734.66;4963948;28;1433;-33
2022/03/31 01:09:45;;;;;;;;;;;;;;;18.04;63.82;99734.25;4965309;28;1464;-33
2022/03/31 01:12:12;;;;;;;;;;;;;;;18.12;63.61;99738.84;4962361;28;1522;-33
2022/03/31 01:14:38;;;;;;;;;;;;;;;18.19;63.47;99734.56;4970976;28;1307;-33
2022/03/31 01:17:05;;;;;;;;;;;;;;;18.38;63.18;99725.47;4967428;28;1718;-33
2022/03/31 01:19:31;;;;;;;;;;;;;;;18.81;62.12;99723.78;4963493;28;1906;-32
2022/03/31 01:21:58;;;;;;;;;;;;;;;18.90;61.47;99732.69;4963545;28;1436;-33
2022/03/31 01:24:26;;;;;;;;;;;;;;;18.45;63.22;99743.44;4964939;28;1747;-33
2022/03/31 01:26:52;;;;;;;;;;;;;;;18.37;63.08;99734.53;4968018;28;1466;-33
2022/03/31 01:29:19;;;;;;;;;;;;;;;18.34;63.59;99737.50;4967292;28;1388;-33
2022/03/31 01:31:45;;;;;;;;;;;;;;;18.43;63.24;99731.22;4967509;28;1750;-33
2022/03/31 01:34:12;;;;;;;;;;;;;;;18.74;62.36;99730.72;4966028;28;1404;-33
2022/03/31 01:36:38;;;;;;;;;;;;;;;18.95;62.07;99730.38;4962846;28;1603;-33
2022/03/31 01:39:05;;;;;;;;;;;;;;;18.98;61.52;99728.22;4963959;28;1910;-33
2022/03/31 01:41:33;;;;;;;;;;;;;;;18.68;61.88;99716.13;4964231;28;1720;-33
2022/03/31 01:43:59;;;;;;;;;;;;;;;18.47;63.12;99727.22;4958138;28;1424;-33
2022/03/31 01:46:26;;;;;;;;;;;;;;;18.43;63.38;99725.88;4968748;28;2009;-33
2022/03/31 01:48:53;;;;;;;;;;;;;;;18.46;63.30;99712.16;4965151;28;1515;-33
2022/03/31 01:51:19;;;;;;;;;;;;;;;18.75;62.06;99703.78;4970491;28;1498;-33
2022/03/31 01:53:46;;;;;;;;;;;;;;;19.11;60.68;99713.53;4963116;28;1784;-33
2022/03/31 01:56:12;;;;;;;;;;;;;;;19.26;60.29;99712.75;4964382;28;1079;-34
2022/03/31 01:58:40;;;;;;;;;;;;;;;19.31;60.22;99714.91;4965247;28;1987;-33
2022/03/31 02:01:07;;;;;;;;;;;;;;;19.22;60.55;99699.84;5023734;23;3583;-60
2022/03/31 02:03:34;;;;;;;;;;;;;;;18.74;62.10;99706.63;5043345;28;1359;-60
2022/03/31 02:06:01;;;;;;;;;;;;;;;18.62;62.32;99706.91;5045031;28;1517;-62
2022/03/31 02:08:28;;;;;;;;;;;;;;;18.59;62.62;99695.66;5045648;28;1012;-62
2022/03/31 02:10:54;;;;;;;;;;;;;;;18.71;62.51;99698.91;5042836;28;1413;-63
2022/03/31 02:13:21;;;;;;;;;;;;;;;19.17;60.75;99713.69;5045822;28;1726;-58
2022/03/31 02:15:48;;;;;;;;;;;;;;;19.34;60.55;99714.59;5018737;28;1544;-63
2022/03/31 02:18:15;;;;;;;;;;;;;;;19.40;59.86;99713.13;5042002;28;1906;-59
2022/03/31 02:20:42;;;;;;;;;;;;;;;19.38;60.76;99720.50;5043499;28;1027;-59
2022/03/31 02:23:08;;;;;;;;;;;;;;;19.38;59.85;99720.50;5041164;28;1719;-63
2022/03/31 02:25:35;;;;;;;;;;;;;;;19.31;60.09;99722.97;5037346;28;1418;-63
2022/03/31 02:28:01;;;;;;;;;;;;;;;19.30;60.53;99726.66;5043208;28;1382;-61
2022/03/31 02:30:28;;;;;;;;;;;;;;;18.87;61.90;99712.41;5053043;28;1053;-62
2022/03/31 02:32:59;;;;;;;;;;;;;;;18.74;62.68;99711.97;5046676;28;1775;-60
2022/03/31 02:35:26;;;;;;;;;;;;;;;18.69;62.84;99717.81;5040972;28;1528;-63
2022/03/31 02:37:52;;;;;;;;;;;;;;;18.78;62.47;99707.97;5048614;28;1910;-60
2022/03/31 02:40:19;;;;;;;;;;;;;;;19.20;60.58;99708.03;5042641;28;1417;-60
2022/03/31 02:42:45;;;;;;;;;;;;;;;19.41;60.14;99699.53;5043370;28;1439;-62
2022/03/31 02:45:12;;;;;;;;;;;;;;;19.46;59.66;99726.69;5041135;28;1060;-59
2022/03/31 02:47:39;;;;;;;;;;;;;;;19.42;59.81;99729.88;5044494;28;1601;-59
2022/03/31 02:50:07;;;;;;;;;;;;;;;19.44;60.14;99726.03;5040026;28;1696;-62
2022/03/31 02:55:28;;;;;;;;;;;;;;;19.39;60.23;99719.47;5044396;28;1373;-63
2022/03/31 02:57:55;;;;;;;;;;;;;;;19.39;59.79;99711.44;5046291;28;1969;-60
2022/03/31 03:00:21;;;;;;;;;;;;;;;19.35;59.96;99716.28;5038211;28;1069;-59
2022/03/31 03:02:48;;;;;;;;;;;;;;;19.40;60.30;99713.13;5041174;28;1449;-60
2022/03/31 03:05:16;;;;;;;;;;;;;;;19.41;60.79;99699.53;5043276;28;1547;-60
2022/03/31 03:07:43;;;;;;;;;;;;;;;19.39;60.69;99684.63;5040379;28;1584;-63
2022/03/31 03:10:10;;;;;;;;;;;;;;;19.41;60.80;99688.81;5044124;28;1627;-63
2022/03/31 03:12:37;;;;;;;;;;;;;;;19.36;60.31;99685.78;5044245;28;1544;-62
2022/03/31 03:15:04;;;;;;;;;;;;;;;19.43;60.77;99681.44;5048745;28;1079;-62
2022/03/31 03:17:31;;;;;;;;;;;;;;;19.41;60.93;99694.16;5048444;28;1821;-60
2022/03/31 03:19:58;;;;;;;;;;;;;;;19.36;59.99;99675.06;5041029;28;1979;-60
2022/03/31 03:22:26;;;;;;;;;;;;;;;19.45;59.74;99676.75;5043007;28;1423;-60
2022/03/31 03:24:53;;;;;;;;;;;;;;;19.56;59.41;99682.81;5036043;28;1369;-60
2022/03/31 03:27:19;;;;;;;;;;;;;;;19.52;60.63;99690.34;5043642;28;1612;-60
2022/03/31 03:29:46;;;;;;;;;;;;;;;19.45;60.17;99706.25;5047698;28;1414;-63
2022/03/31 03:32:13;;;;;;;;;;;;;;;19.50;60.12;99695.03;5048272;28;1652;-63
2022/03/31 03:34:39;;;;;;;;;;;;;;;19.52;60.01;99689.50;5043145;28;1580;-62
2022/03/31 03:37:06;;;;;;;;;;;;;;;19.48;60.13;99678.28;5042233;28;1467;-63
2022/03/31 03:39:35;;;;;;;;;;;;;;;19.46;60.40;99685.66;5045394;28;1967;-60
2022/03/31 03:42:01;;;;;;;;;;;;;;;19.46;60.77;99686.47;5045531;28;1462;-63
2022/03/31 03:44:28;;;;;;;;;;;;;;;19.43;60.39;99668.03;5041004;28;1344;-62
2022/03/31 03:46:55;;;;;;;;;;;;;;;19.44;60.78;99688.50;5030784;28;1725;-59
2022/03/31 03:49:21;;;;;;;;;;;;;;;19.51;60.52;99685.16;5043691;28;1466;-60
2022/03/31 03:51:48;;;;;;;;;;;;;;;19.41;60.02;99662.00;5046132;28;1496;-59
2022/03/31 03:54:15;;;;;;;;;;;;;;;19.32;61.00;99683.59;5044429;28;1917;-59
2022/03/31 03:56:43;;;;;;;;;;;;;;;18.90;61.78;99674.59;5044470;28;1411;-63
2022/03/31 03:59:10;;;;;;;;;;;;;;;18.62;62.96;99682.81;5042449;28;1906;-60
2022/03/31 04:01:37;;;;;;;;;;;;;;;18.50;63.31;99689.41;5043136;28;1519;-62
2022/03/31 04:04:04;;;;;;;;;;;;;;;18.42;63.17;99686.69;5042642;28;1259;-60
2022/03/31 04:06:31;;;;;;;;;;;;;;;18.39;63.05;99677.16;5042388;28;1434;-62
2022/03/31 04:08:57;;;;;;;;;;;;;;;18.37;63.56;99689.03;5036148;28;1368;-60
2022/03/31 04:11:24;;;;;;;;;;;;;;;18.29;63.57;99676.41;5049341;28;1404;-59
2022/03/31 04:13:52;;;;;;;;;;;;;;;18.28;63.73;99683.63;5041526;28;1302;-61
2022/03/31 04:16:18;;;;;;;;;;;;;;;18.23;64.03;99672.53;5038800;28;1422;-60
2022/03/31 04:18:45;;;;;;;;;;;;;;;18.16;63.99;99678.66;5041525;28;1910;-61
2022/03/31 04:21:11;;;;;;;;;;;;;;;18.15;63.08;99671.66;5047008;28;1462;-59
2022/03/31 04:23:38;;;;;;;;;;;;;;;18.06;63.66;99668.06;5045959;28;1366;-59
2022/03/31 04:26:04;;;;;;;;;;;;;;;18.02;63.97;99669.38;5046682;28;1316;-63
2022/03/31 04:28:31;;;;;;;;;;;;;;;17.97;63.80;99664.50;5041707;28;1617;-62
2022/03/31 04:30:59;;;;;;;;;;;;;;;17.94;63.85;99666.63;5043870;28;1448;-62
2022/03/31 04:33:27;;;;;;;;;;;;;;;17.96;64.01;99675.34;5046500;28;1616;-58
2022/03/31 04:35:53;;;;;;;;;;;;;;;17.93;63.98;99667.66;5048688;28;965;-63
2022/03/31 04:38:20;;;;;;;;;;;;;;;17.90;63.20;99666.09;5048104;28;1422;-59
2022/03/31 04:40:46;;;;;;;;;;;;;;;17.97;63.01;99672.50;5047939;28;1902;-62
2022/03/31 04:43:13;;;;;;;;;;;;;;;17.97;62.93;99655.63;5037157;28;1621;-60
2022/03/31 04:45:41;;;;;;;;;;;;;;;18.00;63.08;99657.97;5039583;28;1386;-58
2022/03/31 04:48:09;;;;;;;;;;;;;;;18.00;62.90;99660.66;5039874;28;1413;-59
2022/03/31 04:50:36;;;;;;;;;;;;;;;17.98;62.67;99635.91;5041178;28;1656;-59
2022/03/31 04:53:02;;;;;;;;;;;;;;;18.00;62.79;99633.91;5039158;28;1407;-56
2022/03/31 04:55:29;;;;;;;;;;;;;;;18.05;63.25;99651.16;5049144;28;1347;-63
2022/03/31 04:57:56;;;;;;;;;;;;;;;18.08;63.16;99645.53;5046187;28;1553;-58
2022/03/31 05:00:22;;;;;;;;;;;;;;;18.08;62.72;99658.03;5039935;28;1898;-64
2022/03/31 05:02:49;;;;;;;;;;;;;;;18.04;62.92;99636.09;5032808;28;1783;-58
2022/03/31 05:05:17;;;;;;;;;;;;;;;18.02;62.71;99642.63;5047433;28;1862;-64
2022/03/31 05:07:44;;;;;;;;;;;;;;;17.99;62.75;99641.09;5035818;28;1426;-64
2022/03/31 05:10:11;;;;;;;;;;;;;;;17.99;62.84;99640.28;5042519;28;1472;-59
2022/03/31 05:12:37;;;;;;;;;;;;;;;17.98;62.89;99641.25;5044391;28;1561;-64
2022/03/31 05:15:04;;;;;;;;;;;;;;;17.98;63.12;99658.13;5040915;28;1048;-59
2022/03/31 05:17:34;;;;;;;;;;;;;;;17.97;63.22;99658.31;5041378;28;1433;-64
2022/03/31 05:20:04;;;;;;;;;;;;;;;17.96;63.22;99653.94;5044924;28;1914;-64
2022/03/31 05:22:33;;;;;;;;;;;;;;;17.95;62.74;99641.59;5039539;28;1544;-59
2022/03/31 05:25:00;;;;;;;;;;;;;;;17.93;63.70;99647.06;5031082;28;1446;-65
2022/03/31 05:27:26;;;;;;;;;;;;;;;17.91;63.39;99650.91;5044826;28;1596;-64
2022/03/31 05:29:53;;;;;;;;;;;;;;;17.94;63.30;99643.38;5044071;28;977;-59
2022/03/31 05:32:20;;;;;;;;;;;;;;;17.93;63.19;99663.13;5043335;28;1498;-59
2022/03/31 05:34:47;;;;;;;;;;;;;;;17.95;63.27;99641.59;5041213;28;1437;-64
2022/03/31 05:37:14;;;;;;;;;;;;;;;17.94;63.32;99634.53;5033930;28;1311;-59
2022/03/31 05:39:42;;;;;;;;;;;;;;;17.92;63.07;99637.34;5044747;28;1905;-59
2022/03/31 05:42:09;;;;;;;;;;;;;;;17.95;62.83;99625.53;5043694;28;1656;-59
2022/03/31 05:44:36;;;;;;;;;;;;;;;17.94;63.09;99643.38;5048154;28;1264;-59
2022/03/31 05:47:02;;;;;;;;;;;;;;;17.94;63.01;99645.22;5049928;28;1905;-59
2022/03/31 05:49:29;;;;;;;;;;;;;;;17.92;63.16;99642.72;5045467;28;1573;-59
2022/03/31 05:51:55;;;;;;;;;;;;;;;17.96;63.23;99632.53;5045582;28;1577;-59
2022/03/31 05:54:22;;;;;;;;;;;;;;;17.95;63.13;99625.53;5034420;28;1636;-61
2022/03/31 05:56:50;;;;;;;;;;;;;;;17.97;63.38;99618.19;5039418;28;1169;-60
2022/03/31 05:59:16;;;;;;;;;;;;;;;18.05;63.29;99629.78;5027682;28;1967;-66
2022/03/31 06:01:43;;;;;;;;;;;;;;;18.05;63.87;99648.50;5030425;28;1466;-57
2022/03/31 06:04:09;;;;;;;;;;;;;;;17.99;63.91;99626.91;5043937;28;1399;-61
2022/03/31 06:06:36;;;;;;;;;;;;;;;17.99;63.36;99621.53;5038301;28;1410;-62
2022/03/31 06:09:03;;;;;;;;;;;;;;;18.08;64.29;99626.78;5046901;28;1581;-57
2022/03/31 06:11:30;;;;;;;;;;;;;;;18.16;63.99;99623.31;5045151;28;1397;-60
2022/03/31 06:13:58;;;;;;;;;;;;;;;18.21;64.13;99621.00;5045185;28;1051;-63
2022/03/31 06:16:25;;;;;;;;;;;;;;;18.19;64.20;99628.34;5049814;28;1453;-60
2022/03/31 06:18:51;;;;;;;;;;;;;;;18.07;64.07;99616.25;5037477;28;1531;-66
2022/03/31 06:21:18;;;;;;;;;;;;;;;18.14;64.34;99630.66;5044199;28;1902;-59
2022/03/31 06:23:44;;;;;;;;;;;;;;;18.10;64.83;99629.28;5044894;28;1277;-59
2022/03/31 06:26:11;;;;;;;;;;;;;;;18.13;64.29;99634.34;5044495;28;973;-68
2022/03/31 06:28:37;;;;;;;;;;;;;;;18.13;64.07;99634.34;5048426;28;1423;-66
2022/03/31 06:31:05;;;;;;;;;;;;;;;18.09;63.80;99641.84;5037470;28;1539;-66
2022/03/31 06:33:32;;;;;;;;;;;;;;;18.15;63.24;99634.19;5032243;28;1532;-62
2022/03/31 06:35:58;;;;;;;;;;;;;;;18.19;63.31;99640.91;5043565;28;1455;-64
2022/03/31 06:38:25;;;;;;;;;;;;;;;18.19;63.64;99631.03;5040074;28;1767;-62
2022/03/31 06:43:32;;;;;;;;;;;;;;;18.22;63.44;99638.75;5033880;28;1351;-61
2022/03/31 06:45:59;;;;;;;;;;;;;;;18.19;63.78;99639.06;5026345;28;1429;-60
2022/03/31 06:48:29;;;;;;;;;;;;;;;18.23;64.07;99635.06;5044524;28;1549;-58
2022/03/31 06:50:56;;;;;;;;;;;;;;;18.31;63.84;99649.50;5033989;28;1348;-63
2022/03/31 06:53:23;;;;;;;;;;;;;;;18.27;63.92;99668.53;5036627;28;1264;-63
2022/03/31 06:55:50;;;;;;;;;;;;;;;18.28;63.63;99664.88;5038910;28;1595;-57
2022/03/31 06:58:17;;;;;;;;;;;;;;;18.20;63.70;99672.84;5048419;28;1723;-58
2022/03/31 07:00:44;;;;;;;;;;;;;;;18.17;63.32;99649.09;5035150;28;1975;-61
2022/03/31 07:03:10;;;;;;;;;;;;;;;18.21;63.83;99668.34;5041384;28;1510;-63
2022/03/31 07:05:38;;;;;;;;;;;;;;;18.14;63.83;99673.47;5034195;28;1348;-61
2022/03/31 07:08:05;;;;;;;;;;;;;;;18.12;64.17;99679.97;5042224;28;1468;-58
2022/03/31 07:10:32;;;;;;;;;;;;;;;18.12;64.04;99680.81;5048249;28;1671;-58
2022/03/31 07:13:00;;;;;;;;;;;;;;;18.17;63.70;99677.69;5039216;28;1362;-58
2022/03/31 07:15:27;;;;;;;;;;;;;;;18.18;61.33;99690.88;5037226;28;1016;-58
2022/03/31 07:17:54;;;;;;;;;;;;;;;18.10;59.81;99685.47;5046073;28;1786;-58
2022/03/31 07:20:21;;;;;;;;;;;;;;;18.08;58.13;99680.31;5041540;28;1898;-58
2022/03/31 07:22:50;;;;;;;;;;;;;;;18.11;58.01;99684.50;5039237;28;1574;-62
2022/03/31 07:25:17;;;;;;;;;;;;;;;18.08;56.76;99684.78;5045701;28;1568;-59
2022/03/31 07:27:44;;;;;;;;;;;;;;;18.07;56.37;99667.91;5041837;28;1478;-63
2022/03/31 07:30:11;;;;;;;;;;;;;;;17.98;52.63;99679.53;5026718;28;1502;-63
2022/03/31 07:32:46;;;;;;;;;;;;;;;17.93;54.73;99675.66;5044021;28;1559;-58
2022/03/31 07:35:12;;;;;;;;;;;;;;;17.91;53.99;99688.34;5045009;28;1601;-59
2022/03/31 07:37:39;;;;;;;;;;;;;;;17.96;55.83;99678.84;5045983;28;1569;-63
2022/03/31 07:40:08;;;;;;;;;;;;;;;18.02;54.74;99672.88;5048215;28;1977;-59
2022/03/31 07:42:34;;;;;;;;;;;;;;;18.08;55.48;99658.03;5045958;28;1596;-58
2022/03/31 07:45:01;;;;;;;;;;;;;;;18.18;56.13;99668.63;5046307;28;805;-63
2022/03/31 07:47:27;;;;;;;;;;;;;;;18.34;54.09;99670.59;5043694;28;1452;-59
2022/03/31 07:49:54;;;;;;;;;;;;;;;18.45;55.30;99681.03;5050173;28;1548;-59
2022/03/31 07:52:21;;;;;;;;;;;;;;;18.63;54.57;99672.94;5046693;28;1373;-59
2022/03/31 07:54:48;;;;;;;;;;;;;;;18.67;54.69;99668.94;5046868;28;1627;-58
2022/03/31 07:57:16;;;;;;;;;;;;;;;18.77;54.53;99677.69;5047939;28;1593;-59
2022/03/31 07:59:43;;;;;;;;;;;;;;;18.80;53.71;99673.88;5040939;28;1993;-59
2022/03/31 08:02:09;;;;;;;;;;;;;;;18.83;53.47;99678.91;5049605;28;1476;-63
2022/03/31 08:04:36;;;;;;;;;;;;;;;18.84;54.25;99665.38;5047663;28;1604;-62
2022/03/31 08:07:03;;;;;;;;;;;;;;;18.96;52.72;99683.81;5048842;28;1506;-59
2022/03/31 08:09:29;;;;;;;;;;;;;;;19.04;53.84;99676.66;5050425;28;1003;-57
2022/03/31 08:11:56;;;;;;;;;;;;;;;19.08;54.18;99677.19;5049937;28;1739;-63
2022/03/31 08:14:23;;;;;;;;;;;;;;;19.08;53.68;99648.53;5043295;28;1610;-63
2022/03/31 08:16:51;;;;;;;;;;;;;;;19.19;53.44;99663.47;5032980;28;1566;-62
2022/03/31 08:19:18;;;;;;;;;;;;;;;19.24;53.91;99649.59;5047201;28;1582;-59
2022/03/31 08:21:46;;;;;;;;;;;;;;;19.27;53.69;99657.28;5049545;28;1967;-63
2022/03/31 08:24:13;;;;;;;;;;;;;;;19.38;52.72;99653.47;5045911;28;1871;-59
2022/03/31 08:26:40;;;;;;;;;;;;;;;19.39;52.78;99641.72;5048244;28;1597;-64
2022/03/31 08:29:07;;;;;;;;;;;;;;;19.37;53.37;99657.97;5047146;28;1022;-63
2022/03/31 08:31:35;;;;;;;;;;;;;;;19.25;53.58;99643.22;5040029;28;1676;-63
2022/03/31 08:34:01;;;;;;;;;;;;;;;19.34;52.91;99636.88;5049102;28;1644;-63
2022/03/31 08:36:29;;;;;;;;;;;;;;;19.34;52.92;99644.06;5047444;28;1640;-59
2022/03/31 08:38:55;;;;;;;;;;;;;;;19.26;53.11;99644.91;5047008;28;1385;-63
2022/03/31 08:41:24;;;;;;;;;;;;;;;19.35;52.76;99653.78;5046374;28;1926;-59
2022/03/31 08:43:50;;;;;;;;;;;;;;;19.26;53.26;99636.84;5044317;28;1634;-59
2022/03/31 08:46:17;;;;;;;;;;;;;;;19.28;52.06;99651.75;5053678;28;1704;-63
2022/03/31 08:48:45;;;;;;;;;;;;;;;19.27;53.33;99641.19;5048276;28;1644;-59
2022/03/31 08:51:12;;;;;;;;;;;;;;;19.27;53.03;99649.25;5046368;28;1529;-63
2022/03/31 08:53:38;;;;;;;;;;;;;;;19.36;52.73;99636.69;5047668;28;2067;-58
2022/03/31 08:56:05;;;;;;;;;;;;;;;19.33;51.99;99655.78;5048303;28;983;-63
2022/03/31 08:58:32;;;;;;;;;;;;;;;19.42;51.23;99644.91;5048204;28;1708;-62
2022/03/31 09:00:58;;;;;;;;;;;;;;;19.31;49.67;99623.78;5038482;28;1910;-59
2022/03/31 09:03:33;;;;;;;;;;;;;;;19.72;49.34;99610.44;5046732;28;1616;-61
2022/03/31 09:06:01;;;;;;;;;;;;;;;19.50;49.36;99611.06;5044164;28;1275;-60
2022/03/31 09:08:27;;;;;;;;;;;;;;;19.18;50.02;99628.78;5047099;28;974;-63
2022/03/31 09:11:00;;;;;;;;;;;;;;;18.99;52.12;99617.34;5048265;28;1724;-67
2022/03/31 09:13:28;;;;;;;;;;;;;;;18.89;53.22;99624.69;5047861;28;1783;-62
2022/03/31 09:15:56;;;;;;;;;;;;;;;18.83;53.48;99636.06;5037730;28;1740;-58
2022/03/31 09:18:23;;;;;;;;;;;;;;;18.76;53.45;99640.34;5046734;28;1589;-60
2022/03/31 09:20:50;;;;;;;;;;;;;;;18.65;54.39;99638.81;5047801;28;1989;-58
2022/03/31 09:23:19;;;;;;;;;;;;;;;18.64;54.26;99654.03;5048099;28;1601;-63
2022/03/31 09:25:46;;;;;;;;;;;;;;;18.56;54.62;99645.97;5042591;28;1539;-60
2022/03/31 09:28:13;;;;;;;;;;;;;;;18.54;55.15;99631.03;5049949;28;1798;-64
2022/03/31 09:30:44;;;;;;;;;;;;;;;18.59;54.82;99624.22;5037562;28;1478;-61
2022/03/31 09:33:10;;;;;;;;;;;;;;;18.56;54.77;99619.19;5042294;28;1576;-63
2022/03/31 09:35:37;;;;;;;;;;;;;;;18.59;55.12;99629.56;5047634;28;1715;-60
2022/03/31 09:38:11;;;;;;;;;;;;;;;18.57;54.96;99623.53;5042073;28;1644;-61
2022/03/31 09:40:39;;;;;;;;;;;;;;;18.55;54.40;99617.50;5042748;28;1906;-60
2022/03/31 09:43:05;;;;;;;;;;;;;;;18.53;54.55;99619.50;5048249;28;1620;-63
2022/03/31 09:45:39;;;;;;;;;;;;;;;18.52;55.52;99612.47;5039068;28;1514;-61
2022/03/31 09:48:08;;;;;;;;;;;;;;;18.51;55.52;99616.16;5043769;28;1420;-63
2022/03/31 09:50:36;;;;;;;;;;;;;;;18.47;55.48;99622.81;5043233;28;1727;-60
2022/03/31 09:53:03;;;;;;;;;;;;;;;18.43;55.19;99621.47;5043300;28;1602;-63
2022/03/31 09:55:30;;;;;;;;;;;;;;;18.40;55.17;99609.25;5043852;28;1406;-60
2022/03/31 09:57:58;;;;;;;;;;;;;;;18.42;55.36;99604.56;5043925;28;1509;-63
2022/03/31 10:00:25;;;;;;;;;;;;;;;18.39;55.46;99606.72;5042374;28;1977;-64
2022/03/31 10:02:52;;;;;;;;;;;;;;;18.37;55.82;99608.72;5040582;28;1520;-60
2022/03/31 10:05:19;;;;;;;;;;;;;;;18.38;55.70;99605.91;5041558;28;1668;-59
2022/03/31 10:07:47;;;;;;;;;;;;;;;18.42;56.13;99612.59;5049549;28;1655;-59
2022/03/31 10:10:13;;;;;;;;;;;;;;;18.44;55.71;99612.41;5042751;28;1389;-60
2022/03/31 10:12:43;;;;;;;;;;;;;;;18.47;56.00;99615.63;5045558;28;1673;-60
2022/03/31 10:15:14;;;;;;;;;;;;;;;18.52;56.17;99606.28;5039659;28;1452;-61
2022/03/31 10:17:42;;;;;;;;;;;;;;;18.55;55.71;99587.22;5042631;28;1731;-65
2022/03/31 10:20:10;;;;;;;;;;;;;;;18.61;55.97;99573.19;5030566;28;1670;-58
2022/03/31 10:25:21;;;;;;;;;;;;;;;18.59;56.83;99581.38;5044598;28;1608;-57
2022/03/31 10:27:50;;;;;;;;;;;;;;;18.67;56.12;99573.38;5039466;28;1596;-66
2022/03/31 10:30:19;;;;;;;;;;;;;;;18.65;56.71;99572.69;5028683;28;1438;-57
2022/03/31 10:32:53;;;;;;;;;;;;;;;18.64;56.61;99573.72;5040128;28;1483;-57
2022/03/31 10:35:21;;;;;;;;;;;;;;;18.69;57.04;99570.53;5043322;28;1492;-66
2022/03/31 10:37:47;;;;;;;;;;;;;;;18.62;57.03;99566.81;5034700;28;1576;-63
2022/03/31 10:40:16;;;;;;;;;;;;;;;18.64;56.71;99562.13;5036430;28;1469;-65
2022/03/31 10:42:43;;;;;;;;;;;;;;;18.65;56.78;99575.38;5030611;28;1308;-62
2022/03/31 10:45:12;;;;;;;;;;;;;;;18.60;56.82;99576.84;5037829;28;1229;-59
2022/03/31 10:47:41;;;;;;;;;;;;;;;18.54;56.98;99572.16;5041045;28;1575;-59
2022/03/31 10:50:08;;;;;;;;;;;;;;;18.52;57.44;99564.28;5033787;28;1416;-61
2022/03/31 10:52:35;;;;;;;;;;;;;;;18.45;57.35;99550.69;5034900;28;1240;-63
2022/03/31 10:55:05;;;;;;;;;;;;;;;18.44;57.66;99540.16;5038136;28;1454;-59
2022/03/31 10:57:38;;;;;;;;;;;;;;;18.44;57.49;99535.66;5039327;28;1427;-59
2022/03/31 11:00:07;;;;;;;;;;;;;;;18.42;58.44;99544.81;5032689;28;1295;-63
2022/03/31 11:02:39;;;;;;;;;;;;;;;18.48;57.73;99542.38;5038459;28;1915;-60
2022/03/31 11:05:08;;;;;;;;;;;;;;;18.46;58.09;99527.44;5037972;28;1581;-60
2022/03/31 11:07:34;;;;;;;;;;;;;;;18.46;57.70;99535.47;5040577;28;1591;-60
2022/03/31 11:10:01;;;;;;;;;;;;;;;18.42;57.87;99528.75;5040753;28;1561;-60
2022/03/31 11:12:29;;;;;;;;;;;;;;;18.51;57.67;99518.94;5038809;28;1422;-61
2022/03/31 11:14:56;;;;;;;;;;;;;;;18.49;57.87;99506.53;5046752;28;1181;-58
2022/03/31 11:17:26;;;;;;;;;;;;;;;18.54;57.84;99514.06;5035046;28;1448;-62
2022/03/31 11:19:53;;;;;;;;;;;;;;;18.53;57.54;99512.41;5039351;28;1542;-60
2022/03/31 11:22:22;;;;;;;;;;;;;;;18.47;57.75;99521.09;5044682;28;1909;-63
2022/03/31 11:24:50;;;;;;;;;;;;;;;18.40;58.14;99514.72;5037518;28;1475;-60
2022/03/31 11:27:17;;;;;;;;;;;;;;;18.34;58.97;99508.16;5038529;28;1430;-62
2022/03/31 11:29:43;;;;;;;;;;;;;;;18.49;58.56;99511.91;5033681;28;1219;-59
2022/03/31 11:32:10;;;;;;;;;;;;;;;18.58;58.33;99526.16;5037360;28;1474;-58
2022/03/31 11:34:37;;;;;;;;;;;;;;;18.77;57.86;99510.81;5041667;28;1394;-73
2022/03/31 11:37:03;;;;;;;;;;;;;;;18.56;58.79;99517.47;5034116;28;1256;-64
2022/03/31 11:39:34;;;;;;;;;;;;;;;18.57;58.17;99518.28;5033176;28;1222;-59
2022/03/31 11:42:01;;;;;;;;;;;;;;;18.51;58.54;99535.00;5033418;28;1910;-60
2022/03/31 11:44:31;;;;;;;;;;;;;;;18.41;58.52;99519.06;5033331;28;1237;-60
2022/03/31 11:46:57;;;;;;;;;;;;;;;18.37;58.70;99499.00;5033595;28;1261;-59
2022/03/31 11:49:24;;;;;;;;;;;;;;;18.36;58.66;99499.97;5033649;28;1210;-60
2022/03/31 11:51:52;;;;;;;;;;;;;;;18.35;58.40;99492.97;5033431;28;1237;-61
2022/03/31 11:54:19;;;;;;;;;;;;;;;18.38;59.38;99477.44;5033496;28;1226;-59
2022/03/31 11:56:47;;;;;;;;;;;;;;;18.38;58.43;99481.91;5034354;28;1083;-63
2022/03/31 11:59:14;;;;;;;;;;;;;;;18.53;58.92;99468.75;5034633;28;1068;-61
2022/03/31 12:01:43;;;;;;;;;;;;;;;18.54;58.44;99481.94;5033701;28;1975;-62
2022/03/31 12:04:17;;;;;;;;;;;;;;;18.47;59.59;99475.59;5033887;28;1559;-67
2022/03/31 12:06:44;;;;;;;;;;;;;;;18.51;58.80;99465.41;5033369;28;1760;-73
2022/03/31 12:09:11;;;;;;;;;;;;;;;18.44;59.28;99441.97;5034452;28;1463;-64
2022/03/31 12:11:38;;;;;;;;;;;;;;;18.43;59.43;99442.13;5034415;28;1051;-61
2022/03/31 12:14:09;;;;;;;;;;;;;;;18.45;59.42;99440.13;5015002;28;1423;-63
2022/03/31 12:16:42;;;;;;;;;;;;;;;18.60;58.83;99437.63;5014989;28;944;-66
2022/03/31 12:19:09;;;;;;;;;;;;;;;18.57;58.72;99428.09;5017814;28;1060;-69
2022/03/31 12:21:44;;;;;;;;;;;;;;;18.51;59.04;99452.03;5018398;28;1902;-61
2022/03/31 12:24:12;;;;;;;;;;;;;;;18.51;59.27;99450.16;5020961;28;1452;-62
2022/03/31 12:26:39;;;;;;;;;;;;;;;18.46;58.60;99457.84;5037618;28;1554;-63
2022/03/31 12:29:16;;;;;;;;;;;;;;;18.42;59.18;99468.06;5036570;28;1494;-63
2022/03/31 12:31:44;;;;;;;;;;;;;;;18.37;58.96;99461.53;5029002;28;1688;-63
2022/03/31 12:34:11;;;;;;;;;;;;;;;18.35;59.01;99461.69;5037818;28;1308;-63
2022/03/31 12:36:38;;;;;;;;;;;;;;;18.35;59.45;99460.84;5037536;28;1341;-64
2022/03/31 12:39:05;;;;;;;;;;;;;;;18.33;59.10;99462.84;5034420;28;1633;-64
2022/03/31 12:41:34;;;;;;;;;;;;;;;18.32;59.40;99463.84;5037494;28;1914;-63
2022/03/31 12:44:02;;;;;;;;;;;;;;;18.35;59.10;99466.19;5037298;28;1217;-63
2022/03/31 12:46:31;;;;;;;;;;;;;;;18.32;58.98;99461.16;5028779;28;1416;-64
2022/03/31 12:49:00;;;;;;;;;;;;;;;18.29;58.84;99447.09;5028876;28;1502;-65
2022/03/31 12:51:27;;;;;;;;;;;;;;;18.34;59.60;99440.41;5036490;28;1446;-62
2022/03/31 12:53:54;;;;;;;;;;;;;;;18.34;59.68;99448.44;5026910;28;1395;-66
2022/03/31 12:56:24;;;;;;;;;;;;;;;18.42;59.82;99432.41;5034262;28;1384;-62
2022/03/31 12:58:53;;;;;;;;;;;;;;;18.35;59.87;99442.13;5035725;28;1450;-67
2022/03/31 13:01:20;;;;;;;;;;;;;;;18.31;60.31;99419.34;5036199;28;1965;-59
2022/03/31 13:03:48;;;;;;;;;;;;;;;18.37;61.17;99432.91;5029289;28;1493;-60
2022/03/31 13:06:15;;;;;;;;;;;;;;;18.28;60.50;99424.03;5032376;28;1372;-60